Startpagina
METAR-TAF:

METAR-TAF

Vliegvelden :

Kerteh, Maleisië

breedte: 04-32-15N, lengte: 103-25-36E, hoogte: 5 m

Actueel weer

Dit bericht is 1 uur en het 7 minuten geleden gemaakt, om 02:00 UTC
Weinig wind
Temperatuur 27°C
Vochtigheid 89%
Druk 1011 hPa
Zicht: 3000 m
Weinig wolken op 1400 ft
Verspreide wolken op 14000 ft
Gebroken wolken op 26000 ft
Heiigheid

METAR: WMKE 260200Z 00000KT 3000 HZ FEW014 SCT140 BKN260 27/25 Q1011

Tijdstip: 11:07 (03:07 UTC)

Verwachting

Dit bericht is 4 uur en het 7 minuten geleden gemaakt, om 23:00 UTC
Verwachting geldig van 26 om 00 UTC tot 27 om 00 UTC
Wind 5 kt uit het zuidzuidoosten
Zicht: 4000 m
Weinig wolken op 1400 ft
Heiigheid
Tijdelijke
van 26 om 11 UTC tot 26 om 15 UTC
Zicht: 1000 m
Weinig wolken op 400 ft
Weinig wolken op 1400 ft, Cumulonimbus.
Verspreide wolken op 1600 ft
onweer, regen

TAF: WMKE 252300Z 2600/2700 15005KT 4000 HZ FEW014 TEMPO 2611/2615 1000 TSRA FEW004 FEW014CB SCT016

Waarnemingen en weersverwachtingen van meer dan 4000 vliegvelden (METAR en TAF).

De beschikbare stations zijn de gele en rode punten op de kaart.

Ga met uw muis naar het station om de naam te zien.

Klik dan om waarnemingen en weersverwachtingen te zien.

kaart wijzigen: klik op de groene knoppen met een zwart kruis om in te zoomen, op de groene knop met een streepje om uit te zoomen of op de groene pijlen voor aangrenzende kaarten.


METAR-TAF: